sensor_id;sensor_type;location;lat;lon;timestamp;P1;durP1;ratioP1;P2;durP2;ratioP2
42978;SDS011;28616;44.746;19.678;2023-01-04T00:01:06;259.13;;;101.65;;
42978;SDS011;28616;44.746;19.678;2023-01-04T00:03:34;391.00;;;83.88;;
42978;SDS011;28616;44.746;19.678;2023-01-04T00:06:00;302.98;;;72.38;;
42978;SDS011;28616;44.746;19.678;2023-01-04T00:08:28;279.15;;;90.00;;
42978;SDS011;28616;44.746;19.678;2023-01-04T00:11:04;243.38;;;69.07;;
42978;SDS011;28616;44.746;19.678;2023-01-04T00:13:36;258.70;;;52.33;;
42978;SDS011;28616;44.746;19.678;2023-01-04T00:16:03;217.48;;;52.83;;
42978;SDS011;28616;44.746;19.678;2023-01-04T00:18:33;239.85;;;59.35;;
42978;SDS011;28616;44.746;19.678;2023-01-04T00:21:07;184.02;;;54.67;;
42978;SDS011;28616;44.746;19.678;2023-01-04T00:23:41;268.20;;;74.35;;
42978;SDS011;28616;44.746;19.678;2023-01-04T00:26:09;232.55;;;63.08;;
42978;SDS011;28616;44.746;19.678;2023-01-04T00:28:36;253.75;;;67.68;;
42978;SDS011;28616;44.746;19.678;2023-01-04T00:31:06;317.17;;;99.97;;
42978;SDS011;28616;44.746;19.678;2023-01-04T00:33:34;309.80;;;106.68;;
42978;SDS011;28616;44.746;19.678;2023-01-04T00:36:03;258.05;;;74.22;;
42978;SDS011;28616;44.746;19.678;2023-01-04T00:38:31;177.45;;;45.72;;
42978;SDS011;28616;44.746;19.678;2023-01-04T00:40:57;170.63;;;75.43;;
42978;SDS011;28616;44.746;19.678;2023-01-04T00:43:23;201.18;;;98.03;;
42978;SDS011;28616;44.746;19.678;2023-01-04T00:45:49;222.35;;;91.75;;
42978;SDS011;28616;44.746;19.678;2023-01-04T00:48:15;230.40;;;80.40;;
42978;SDS011;28616;44.746;19.678;2023-01-04T00:50:42;235.15;;;74.68;;
42978;SDS011;28616;44.746;19.678;2023-01-04T00:53:09;177.32;;;66.38;;
42978;SDS011;28616;44.746;19.678;2023-01-04T00:55:36;160.82;;;63.45;;
42978;SDS011;28616;44.746;19.678;2023-01-04T00:58:01;179.30;;;62.55;;
42978;SDS011;28616;44.746;19.678;2023-01-04T01:00:27;184.52;;;64.82;;
42978;SDS011;28616;44.746;19.678;2023-01-04T01:02:53;176.35;;;66.82;;
42978;SDS011;28616;44.746;19.678;2023-01-04T01:05:19;144.25;;;53.63;;
42978;SDS011;28616;44.746;19.678;2023-01-04T01:07:44;134.07;;;51.28;;
42978;SDS011;28616;44.746;19.678;2023-01-04T01:10:10;182.45;;;55.17;;
42978;SDS011;28616;44.746;19.678;2023-01-04T01:12:36;285.15;;;72.75;;
42978;SDS011;28616;44.746;19.678;2023-01-04T01:15:01;250.10;;;72.43;;
42978;SDS011;28616;44.746;19.678;2023-01-04T01:17:27;215.75;;;65.90;;
42978;SDS011;28616;44.746;19.678;2023-01-04T01:19:53;298.13;;;74.90;;
42978;SDS011;28616;44.746;19.678;2023-01-04T01:22:19;233.30;;;71.03;;
42978;SDS011;28616;44.746;19.678;2023-01-04T01:24:44;237.43;;;84.82;;
42978;SDS011;28616;44.746;19.678;2023-01-04T01:27:10;191.52;;;72.25;;
42978;SDS011;28616;44.746;19.678;2023-01-04T01:29:36;195.20;;;74.53;;
42978;SDS011;28616;44.746;19.678;2023-01-04T01:32:01;176.35;;;65.60;;
42978;SDS011;28616;44.746;19.678;2023-01-04T01:34:27;182.13;;;64.18;;
42978;SDS011;28616;44.746;19.678;2023-01-04T01:36:53;161.43;;;57.05;;
42978;SDS011;28616;44.746;19.678;2023-01-04T01:39:19;165.00;;;54.53;;
42978;SDS011;28616;44.746;19.678;2023-01-04T01:41:44;165.93;;;65.65;;
42978;SDS011;28616;44.746;19.678;2023-01-04T01:47:09;195.65;;;72.35;;
42978;SDS011;28616;44.746;19.678;2023-01-04T01:49:50;175.93;;;67.00;;
42978;SDS011;28616;44.746;19.678;2023-01-04T01:52:20;167.10;;;71.18;;
42978;SDS011;28616;44.746;19.678;2023-01-04T01:54:53;168.65;;;74.72;;
42978;SDS011;28616;44.746;19.678;2023-01-04T01:57:24;184.70;;;77.10;;
42978;SDS011;28616;44.746;19.678;2023-01-04T01:59:55;170.55;;;70.43;;
42978;SDS011;28616;44.746;19.678;2023-01-04T02:02:23;145.98;;;63.72;;
42978;SDS011;28616;44.746;19.678;2023-01-04T02:04:49;139.90;;;62.72;;
42978;SDS011;28616;44.746;19.678;2023-01-04T02:07:17;128.27;;;57.70;;
42978;SDS011;28616;44.746;19.678;2023-01-04T02:09:45;136.75;;;61.67;;
42978;SDS011;28616;44.746;19.678;2023-01-04T02:12:13;128.18;;;55.90;;
42978;SDS011;28616;44.746;19.678;2023-01-04T02:14:39;141.00;;;63.20;;
42978;SDS011;28616;44.746;19.678;2023-01-04T02:30:55;149.98;;;57.70;;
42978;SDS011;28616;44.746;19.678;2023-01-04T02:41:49;98.07;;;50.45;;
42978;SDS011;28616;44.746;19.678;2023-01-04T02:44:44;94.85;;;49.15;;
42978;SDS011;28616;44.746;19.678;2023-01-04T02:53:27;76.43;;;39.47;;
42978;SDS011;28616;44.746;19.678;2023-01-04T02:56:16;74.70;;;38.20;;
42978;SDS011;28616;44.746;19.678;2023-01-04T03:01:59;89.80;;;48.85;;
42978;SDS011;28616;44.746;19.678;2023-01-04T03:05:24;82.63;;;44.75;;
42978;SDS011;28616;44.746;19.678;2023-01-04T03:11:05;74.45;;;39.03;;
42978;SDS011;28616;44.746;19.678;2023-01-04T03:14:06;71.72;;;37.50;;
42978;SDS011;28616;44.746;19.678;2023-01-04T03:16:38;82.60;;;40.10;;
42978;SDS011;28616;44.746;19.678;2023-01-04T03:19:07;79.60;;;40.75;;
42978;SDS011;28616;44.746;19.678;2023-01-04T03:21:35;103.75;;;50.95;;
42978;SDS011;28616;44.746;19.678;2023-01-04T03:24:04;87.20;;;45.08;;
42978;SDS011;28616;44.746;19.678;2023-01-04T03:26:51;108.43;;;50.90;;
42978;SDS011;28616;44.746;19.678;2023-01-04T03:30:12;95.75;;;47.47;;
42978;SDS011;28616;44.746;19.678;2023-01-04T03:32:55;85.25;;;44.33;;
42978;SDS011;28616;44.746;19.678;2023-01-04T03:35:45;80.65;;;41.75;;
42978;SDS011;28616;44.746;19.678;2023-01-04T03:41:13;67.95;;;37.72;;
42978;SDS011;28616;44.746;19.678;2023-01-04T03:47:18;68.65;;;36.90;;
42978;SDS011;28616;44.746;19.678;2023-01-04T03:50:11;70.07;;;37.53;;
42978;SDS011;28616;44.746;19.678;2023-01-04T03:52:43;73.53;;;39.47;;
42978;SDS011;28616;44.746;19.678;2023-01-04T03:55:11;86.53;;;45.70;;
42978;SDS011;28616;44.746;19.678;2023-01-04T03:57:39;90.13;;;46.40;;
42978;SDS011;28616;44.746;19.678;2023-01-04T04:00:09;100.78;;;50.25;;
42978;SDS011;28616;44.746;19.678;2023-01-04T04:02:38;116.95;;;59.55;;
42978;SDS011;28616;44.746;19.678;2023-01-04T04:05:05;145.40;;;68.68;;
42978;SDS011;28616;44.746;19.678;2023-01-04T04:07:50;148.32;;;74.88;;
42978;SDS011;28616;44.746;19.678;2023-01-04T04:10:34;146.70;;;73.82;;
42978;SDS011;28616;44.746;19.678;2023-01-04T04:13:00;101.30;;;53.10;;
42978;SDS011;28616;44.746;19.678;2023-01-04T04:15:26;105.75;;;53.90;;
42978;SDS011;28616;44.746;19.678;2023-01-04T04:17:52;97.97;;;49.83;;
42978;SDS011;28616;44.746;19.678;2023-01-04T04:20:17;94.80;;;49.97;;
42978;SDS011;28616;44.746;19.678;2023-01-04T04:22:43;88.13;;;46.83;;
42978;SDS011;28616;44.746;19.678;2023-01-04T04:25:09;83.63;;;44.33;;
42978;SDS011;28616;44.746;19.678;2023-01-04T04:27:34;80.82;;;42.10;;
42978;SDS011;28616;44.746;19.678;2023-01-04T04:30:00;83.15;;;43.08;;
42978;SDS011;28616;44.746;19.678;2023-01-04T04:32:26;81.90;;;44.03;;
42978;SDS011;28616;44.746;19.678;2023-01-04T04:34:52;98.30;;;48.30;;
42978;SDS011;28616;44.746;19.678;2023-01-04T04:37:18;98.68;;;52.10;;
42978;SDS011;28616;44.746;19.678;2023-01-04T04:39:43;105.10;;;53.47;;
42978;SDS011;28616;44.746;19.678;2023-01-04T04:42:09;104.47;;;53.25;;
42978;SDS011;28616;44.746;19.678;2023-01-04T04:44:35;97.88;;;49.35;;
42978;SDS011;28616;44.746;19.678;2023-01-04T04:47:01;102.53;;;56.08;;
42978;SDS011;28616;44.746;19.678;2023-01-04T04:49:26;99.35;;;53.33;;
42978;SDS011;28616;44.746;19.678;2023-01-04T04:51:52;116.65;;;60.03;;
42978;SDS011;28616;44.746;19.678;2023-01-04T04:54:18;117.70;;;58.80;;
42978;SDS011;28616;44.746;19.678;2023-01-04T04:56:46;117.32;;;55.83;;
42978;SDS011;28616;44.746;19.678;2023-01-04T04:59:13;114.93;;;57.25;;
42978;SDS011;28616;44.746;19.678;2023-01-04T05:01:39;109.30;;;55.78;;
42978;SDS011;28616;44.746;19.678;2023-01-04T05:04:05;112.70;;;55.78;;
42978;SDS011;28616;44.746;19.678;2023-01-04T05:06:31;106.80;;;54.47;;
42978;SDS011;28616;44.746;19.678;2023-01-04T05:08:56;103.53;;;56.47;;
42978;SDS011;28616;44.746;19.678;2023-01-04T05:11:22;107.47;;;57.08;;
42978;SDS011;28616;44.746;19.678;2023-01-04T05:14:07;106.47;;;57.95;;
42978;SDS011;28616;44.746;19.678;2023-01-04T05:16:34;105.93;;;56.60;;
42978;SDS011;28616;44.746;19.678;2023-01-04T05:19:00;108.65;;;59.10;;
42978;SDS011;28616;44.746;19.678;2023-01-04T05:21:26;95.40;;;53.58;;
42978;SDS011;28616;44.746;19.678;2023-01-04T05:23:51;96.05;;;51.33;;
42978;SDS011;28616;44.746;19.678;2023-01-04T05:26:17;91.25;;;52.15;;
42978;SDS011;28616;44.746;19.678;2023-01-04T05:28:43;92.47;;;49.47;;
42978;SDS011;28616;44.746;19.678;2023-01-04T05:31:08;77.13;;;45.20;;
42978;SDS011;28616;44.746;19.678;2023-01-04T05:33:34;82.25;;;43.90;;
42978;SDS011;28616;44.746;19.678;2023-01-04T05:36:00;86.72;;;46.88;;
42978;SDS011;28616;44.746;19.678;2023-01-04T05:38:27;78.85;;;42.67;;
42978;SDS011;28616;44.746;19.678;2023-01-04T05:40:54;84.38;;;44.95;;
42978;SDS011;28616;44.746;19.678;2023-01-04T05:43:21;146.73;;;83.65;;
42978;SDS011;28616;44.746;19.678;2023-01-04T05:45:52;158.57;;;83.03;;
42978;SDS011;28616;44.746;19.678;2023-01-04T05:48:20;109.60;;;60.42;;
42978;SDS011;28616;44.746;19.678;2023-01-04T05:50:46;97.43;;;53.53;;
42978;SDS011;28616;44.746;19.678;2023-01-04T05:53:13;84.28;;;46.40;;
42978;SDS011;28616;44.746;19.678;2023-01-04T05:55:41;96.03;;;52.53;;
42978;SDS011;28616;44.746;19.678;2023-01-04T05:58:07;110.20;;;60.03;;
42978;SDS011;28616;44.746;19.678;2023-01-04T06:00:33;104.28;;;61.35;;
42978;SDS011;28616;44.746;19.678;2023-01-04T06:02:59;98.18;;;55.97;;
42978;SDS011;28616;44.746;19.678;2023-01-04T06:05:25;106.82;;;59.75;;
42978;SDS011;28616;44.746;19.678;2023-01-04T06:07:51;119.13;;;71.95;;
42978;SDS011;28616;44.746;19.678;2023-01-04T06:10:16;115.15;;;59.50;;
42978;SDS011;28616;44.746;19.678;2023-01-04T06:12:43;119.30;;;73.40;;
42978;SDS011;28616;44.746;19.678;2023-01-04T06:15:10;107.60;;;60.03;;
42978;SDS011;28616;44.746;19.678;2023-01-04T06:17:36;107.53;;;59.40;;
42978;SDS011;28616;44.746;19.678;2023-01-04T06:20:03;95.10;;;51.38;;
42978;SDS011;28616;44.746;19.678;2023-01-04T06:22:30;112.78;;;56.05;;
42978;SDS011;28616;44.746;19.678;2023-01-04T06:24:57;103.70;;;57.90;;
42978;SDS011;28616;44.746;19.678;2023-01-04T06:27:22;106.50;;;58.63;;
42978;SDS011;28616;44.746;19.678;2023-01-04T06:29:49;107.18;;;58.00;;
42978;SDS011;28616;44.746;19.678;2023-01-04T06:32:14;104.40;;;56.88;;
42978;SDS011;28616;44.746;19.678;2023-01-04T06:34:40;124.05;;;70.00;;
42978;SDS011;28616;44.746;19.678;2023-01-04T06:37:06;115.70;;;66.05;;
42978;SDS011;28616;44.746;19.678;2023-01-04T06:39:33;187.13;;;111.45;;
42978;SDS011;28616;44.746;19.678;2023-01-04T06:41:59;102.72;;;61.10;;
42978;SDS011;28616;44.746;19.678;2023-01-04T06:44:25;105.28;;;59.33;;
42978;SDS011;28616;44.746;19.678;2023-01-04T06:46:50;115.65;;;63.55;;
42978;SDS011;28616;44.746;19.678;2023-01-04T06:49:16;106.00;;;59.75;;
42978;SDS011;28616;44.746;19.678;2023-01-04T06:51:42;129.20;;;68.82;;
42978;SDS011;28616;44.746;19.678;2023-01-04T06:54:08;165.60;;;88.40;;
42978;SDS011;28616;44.746;19.678;2023-01-04T06:56:35;146.57;;;82.53;;
42978;SDS011;28616;44.746;19.678;2023-01-04T06:59:01;153.15;;;81.00;;
42978;SDS011;28616;44.746;19.678;2023-01-04T07:01:27;143.23;;;77.88;;
42978;SDS011;28616;44.746;19.678;2023-01-04T07:03:53;134.27;;;74.80;;
42978;SDS011;28616;44.746;19.678;2023-01-04T07:06:18;140.68;;;75.40;;
42978;SDS011;28616;44.746;19.678;2023-01-04T07:08:44;131.27;;;70.28;;
42978;SDS011;28616;44.746;19.678;2023-01-04T07:11:10;125.82;;;66.95;;
42978;SDS011;28616;44.746;19.678;2023-01-04T07:13:35;128.65;;;70.03;;
42978;SDS011;28616;44.746;19.678;2023-01-04T07:16:01;136.75;;;70.80;;
42978;SDS011;28616;44.746;19.678;2023-01-04T07:18:27;162.60;;;76.28;;
42978;SDS011;28616;44.746;19.678;2023-01-04T07:20:52;173.40;;;80.65;;
42978;SDS011;28616;44.746;19.678;2023-01-04T07:23:18;197.48;;;95.32;;
42978;SDS011;28616;44.746;19.678;2023-01-04T07:25:44;202.90;;;100.32;;
42978;SDS011;28616;44.746;19.678;2023-01-04T07:28:10;226.25;;;106.30;;
42978;SDS011;28616;44.746;19.678;2023-01-04T07:30:35;228.48;;;110.45;;
42978;SDS011;28616;44.746;19.678;2023-01-04T07:33:01;225.90;;;111.25;;
42978;SDS011;28616;44.746;19.678;2023-01-04T07:35:27;194.30;;;98.88;;
42978;SDS011;28616;44.746;19.678;2023-01-04T07:37:52;202.98;;;95.18;;
42978;SDS011;28616;44.746;19.678;2023-01-04T07:40:18;182.52;;;86.20;;
42978;SDS011;28616;44.746;19.678;2023-01-04T07:42:52;186.23;;;88.47;;
42978;SDS011;28616;44.746;19.678;2023-01-04T07:45:18;195.13;;;95.53;;
42978;SDS011;28616;44.746;19.678;2023-01-04T07:47:44;208.18;;;102.13;;
42978;SDS011;28616;44.746;19.678;2023-01-04T07:50:10;246.63;;;117.32;;
42978;SDS011;28616;44.746;19.678;2023-01-04T07:52:35;376.38;;;187.45;;
42978;SDS011;28616;44.746;19.678;2023-01-04T07:55:01;463.15;;;230.63;;
42978;SDS011;28616;44.746;19.678;2023-01-04T07:57:27;325.73;;;163.80;;
42978;SDS011;28616;44.746;19.678;2023-01-04T07:59:52;196.55;;;102.22;;
42978;SDS011;28616;44.746;19.678;2023-01-04T08:02:18;161.50;;;87.57;;
42978;SDS011;28616;44.746;19.678;2023-01-04T08:04:44;125.40;;;67.57;;
42978;SDS011;28616;44.746;19.678;2023-01-04T08:07:09;150.50;;;80.03;;
42978;SDS011;28616;44.746;19.678;2023-01-04T08:09:35;133.32;;;70.68;;
42978;SDS011;28616;44.746;19.678;2023-01-04T08:12:01;151.85;;;74.57;;
42978;SDS011;28616;44.746;19.678;2023-01-04T08:14:27;167.07;;;83.28;;
42978;SDS011;28616;44.746;19.678;2023-01-04T08:16:52;175.90;;;87.07;;
42978;SDS011;28616;44.746;19.678;2023-01-04T08:19:19;165.85;;;81.55;;
42978;SDS011;28616;44.746;19.678;2023-01-04T08:21:45;158.30;;;75.10;;
42978;SDS011;28616;44.746;19.678;2023-01-04T08:24:13;120.40;;;61.72;;
42978;SDS011;28616;44.746;19.678;2023-01-04T08:26:41;129.63;;;66.30;;
42978;SDS011;28616;44.746;19.678;2023-01-04T08:29:08;126.88;;;61.60;;
42978;SDS011;28616;44.746;19.678;2023-01-04T08:31:33;117.68;;;60.95;;
42978;SDS011;28616;44.746;19.678;2023-01-04T08:34:00;134.80;;;67.88;;
42978;SDS011;28616;44.746;19.678;2023-01-04T08:36:29;132.40;;;67.65;;
42978;SDS011;28616;44.746;19.678;2023-01-04T08:39:08;134.90;;;67.80;;
42978;SDS011;28616;44.746;19.678;2023-01-04T08:41:34;120.75;;;61.20;;
42978;SDS011;28616;44.746;19.678;2023-01-04T08:44:17;109.93;;;58.35;;
42978;SDS011;28616;44.746;19.678;2023-01-04T08:46:45;107.68;;;57.42;;
42978;SDS011;28616;44.746;19.678;2023-01-04T08:49:11;96.38;;;52.47;;
42978;SDS011;28616;44.746;19.678;2023-01-04T08:51:37;99.85;;;53.75;;
42978;SDS011;28616;44.746;19.678;2023-01-04T08:54:03;96.03;;;52.58;;
42978;SDS011;28616;44.746;19.678;2023-01-04T08:56:29;104.82;;;53.35;;
42978;SDS011;28616;44.746;19.678;2023-01-04T08:58:55;94.32;;;49.25;;
42978;SDS011;28616;44.746;19.678;2023-01-04T09:01:20;95.18;;;48.33;;
42978;SDS011;28616;44.746;19.678;2023-01-04T09:03:46;78.80;;;41.65;;
42978;SDS011;28616;44.746;19.678;2023-01-04T09:06:12;89.97;;;46.60;;
42978;SDS011;28616;44.746;19.678;2023-01-04T09:08:40;94.50;;;49.35;;
42978;SDS011;28616;44.746;19.678;2023-01-04T09:11:10;106.57;;;52.03;;
42978;SDS011;28616;44.746;19.678;2023-01-04T09:13:38;85.90;;;46.72;;
42978;SDS011;28616;44.746;19.678;2023-01-04T09:16:05;95.75;;;51.30;;
42978;SDS011;28616;44.746;19.678;2023-01-04T09:18:35;91.47;;;49.27;;
42978;SDS011;28616;44.746;19.678;2023-01-04T09:21:08;82.88;;;45.00;;
42978;SDS011;28616;44.746;19.678;2023-01-04T09:23:38;71.20;;;38.72;;
42978;SDS011;28616;44.746;19.678;2023-01-04T09:26:05;86.28;;;46.00;;
42978;SDS011;28616;44.746;19.678;2023-01-04T09:28:32;93.47;;;50.90;;
42978;SDS011;28616;44.746;19.678;2023-01-04T09:31:02;88.43;;;44.92;;
42978;SDS011;28616;44.746;19.678;2023-01-04T09:33:38;77.25;;;42.85;;
42978;SDS011;28616;44.746;19.678;2023-01-04T09:36:04;89.82;;;47.30;;
42978;SDS011;28616;44.746;19.678;2023-01-04T09:38:32;76.18;;;41.95;;
42978;SDS011;28616;44.746;19.678;2023-01-04T09:41:07;73.95;;;41.30;;
42978;SDS011;28616;44.746;19.678;2023-01-04T09:44:21;70.13;;;38.00;;
42978;SDS011;28616;44.746;19.678;2023-01-04T09:46:36;71.65;;;39.47;;
42978;SDS011;28616;44.746;19.678;2023-01-04T09:51:59;69.15;;;38.10;;
42978;SDS011;28616;44.746;19.678;2023-01-04T09:54:27;66.22;;;38.40;;
42978;SDS011;28616;44.746;19.678;2023-01-04T09:56:59;61.60;;;34.60;;
42978;SDS011;28616;44.746;19.678;2023-01-04T09:59:27;71.07;;;36.17;;
42978;SDS011;28616;44.746;19.678;2023-01-04T10:01:59;75.22;;;39.70;;
42978;SDS011;28616;44.746;19.678;2023-01-04T10:07:13;65.15;;;33.53;;
42978;SDS011;28616;44.746;19.678;2023-01-04T10:09:52;72.43;;;38.50;;
42978;SDS011;28616;44.746;19.678;2023-01-04T10:17:57;71.05;;;37.38;;
42978;SDS011;28616;44.746;19.678;2023-01-04T10:33:49;49.60;;;27.92;;
42978;SDS011;28616;44.746;19.678;2023-01-04T10:36:28;48.05;;;26.80;;
42978;SDS011;28616;44.746;19.678;2023-01-04T10:39:01;43.50;;;25.23;;
42978;SDS011;28616;44.746;19.678;2023-01-04T10:41:36;41.72;;;23.42;;
42978;SDS011;28616;44.746;19.678;2023-01-04T10:46:52;42.75;;;23.10;;
42978;SDS011;28616;44.746;19.678;2023-01-04T10:52:01;43.33;;;22.85;;
42978;SDS011;28616;44.746;19.678;2023-01-04T10:54:45;65.50;;;37.60;;
42978;SDS011;28616;44.746;19.678;2023-01-04T10:57:18;89.93;;;57.47;;
42978;SDS011;28616;44.746;19.678;2023-01-04T11:00:10;32.53;;;21.77;;
42978;SDS011;28616;44.746;19.678;2023-01-04T11:02:47;37.05;;;22.05;;
42978;SDS011;28616;44.746;19.678;2023-01-04T11:08:15;27.90;;;16.90;;
42978;SDS011;28616;44.746;19.678;2023-01-04T11:11:04;31.67;;;20.50;;
42978;SDS011;28616;44.746;19.678;2023-01-04T11:13:54;46.08;;;26.48;;
42978;SDS011;28616;44.746;19.678;2023-01-04T11:16:20;40.13;;;24.15;;
42978;SDS011;28616;44.746;19.678;2023-01-04T11:18:46;47.42;;;27.23;;
42978;SDS011;28616;44.746;19.678;2023-01-04T11:21:13;28.42;;;18.52;;
42978;SDS011;28616;44.746;19.678;2023-01-04T11:23:44;26.88;;;17.45;;
42978;SDS011;28616;44.746;19.678;2023-01-04T11:26:20;49.95;;;28.70;;
42978;SDS011;28616;44.746;19.678;2023-01-04T11:28:56;45.63;;;26.42;;
42978;SDS011;28616;44.746;19.678;2023-01-04T11:31:29;38.95;;;22.73;;
42978;SDS011;28616;44.746;19.678;2023-01-04T11:39:48;32.20;;;20.00;;
42978;SDS011;28616;44.746;19.678;2023-01-04T11:42:23;31.30;;;20.17;;
42978;SDS011;28616;44.746;19.678;2023-01-04T11:44:58;26.42;;;18.60;;
42978;SDS011;28616;44.746;19.678;2023-01-04T11:47:24;35.58;;;21.25;;
42978;SDS011;28616;44.746;19.678;2023-01-04T11:49:52;26.75;;;18.30;;
42978;SDS011;28616;44.746;19.678;2023-01-04T11:52:29;26.50;;;17.77;;
42978;SDS011;28616;44.746;19.678;2023-01-04T11:57:46;39.55;;;24.02;;
42978;SDS011;28616;44.746;19.678;2023-01-04T12:00:14;48.97;;;29.25;;
42978;SDS011;28616;44.746;19.678;2023-01-04T12:02:40;43.72;;;24.77;;
42978;SDS011;28616;44.746;19.678;2023-01-04T12:05:19;35.50;;;21.48;;
42978;SDS011;28616;44.746;19.678;2023-01-04T12:07:46;31.92;;;18.52;;
42978;SDS011;28616;44.746;19.678;2023-01-04T12:10:22;36.70;;;20.25;;
42978;SDS011;28616;44.746;19.678;2023-01-04T12:12:51;38.20;;;19.48;;
42978;SDS011;28616;44.746;19.678;2023-01-04T12:15:25;37.70;;;20.50;;
42978;SDS011;28616;44.746;19.678;2023-01-04T12:18:36;36.08;;;18.67;;
42978;SDS011;28616;44.746;19.678;2023-01-04T12:21:07;47.58;;;23.83;;
42978;SDS011;28616;44.746;19.678;2023-01-04T12:23:53;33.58;;;18.92;;
42978;SDS011;28616;44.746;19.678;2023-01-04T12:26:19;32.35;;;19.55;;
42978;SDS011;28616;44.746;19.678;2023-01-04T12:28:51;63.70;;;31.20;;
42978;SDS011;28616;44.746;19.678;2023-01-04T12:31:46;54.35;;;24.73;;
42978;SDS011;28616;44.746;19.678;2023-01-04T12:37:03;83.13;;;40.28;;
42978;SDS011;28616;44.746;19.678;2023-01-04T12:47:04;25.50;;;16.08;;
42978;SDS011;28616;44.746;19.678;2023-01-04T12:52:47;26.95;;;13.88;;
42978;SDS011;28616;44.746;19.678;2023-01-04T12:57:55;34.13;;;18.10;;
42978;SDS011;28616;44.746;19.678;2023-01-04T13:00:22;40.92;;;21.63;;
42978;SDS011;28616;44.746;19.678;2023-01-04T13:05:49;46.45;;;25.38;;
42978;SDS011;28616;44.746;19.678;2023-01-04T13:08:24;43.60;;;26.20;;
42978;SDS011;28616;44.746;19.678;2023-01-04T13:10:52;33.72;;;20.17;;
42978;SDS011;28616;44.746;19.678;2023-01-04T13:18:52;32.08;;;18.63;;
42978;SDS011;28616;44.746;19.678;2023-01-04T13:21:24;32.72;;;18.45;;
42978;SDS011;28616;44.746;19.678;2023-01-04T13:23:52;37.33;;;21.48;;
42978;SDS011;28616;44.746;19.678;2023-01-04T13:31:46;28.80;;;18.13;;
42978;SDS011;28616;44.746;19.678;2023-01-04T13:36:55;28.23;;;17.13;;
42978;SDS011;28616;44.746;19.678;2023-01-04T13:39:28;33.40;;;19.25;;
42978;SDS011;28616;44.746;19.678;2023-01-04T13:41:55;22.90;;;14.25;;
42978;SDS011;28616;44.746;19.678;2023-01-04T13:47:15;38.88;;;21.45;;
42978;SDS011;28616;44.746;19.678;2023-01-04T13:49:41;41.28;;;23.33;;
42978;SDS011;28616;44.746;19.678;2023-01-04T13:52:40;39.17;;;22.02;;
42978;SDS011;28616;44.746;19.678;2023-01-04T13:55:11;40.03;;;21.98;;
42978;SDS011;28616;44.746;19.678;2023-01-04T13:57:50;28.45;;;16.55;;
42978;SDS011;28616;44.746;19.678;2023-01-04T14:00:20;31.38;;;16.40;;
42978;SDS011;28616;44.746;19.678;2023-01-04T14:02:48;32.90;;;19.73;;
42978;SDS011;28616;44.746;19.678;2023-01-04T14:05:49;38.13;;;19.63;;
42978;SDS011;28616;44.746;19.678;2023-01-04T14:08:29;30.63;;;17.45;;
42978;SDS011;28616;44.746;19.678;2023-01-04T14:10:57;26.60;;;16.98;;
42978;SDS011;28616;44.746;19.678;2023-01-04T14:13:23;32.10;;;21.30;;
42978;SDS011;28616;44.746;19.678;2023-01-04T14:16:11;31.25;;;19.42;;
42978;SDS011;28616;44.746;19.678;2023-01-04T14:18:37;38.40;;;19.58;;
42978;SDS011;28616;44.746;19.678;2023-01-04T14:21:03;26.38;;;14.38;;
42978;SDS011;28616;44.746;19.678;2023-01-04T14:23:32;27.42;;;15.05;;
42978;SDS011;28616;44.746;19.678;2023-01-04T14:26:01;30.15;;;17.10;;
42978;SDS011;28616;44.746;19.678;2023-01-04T14:36:01;51.88;;;25.55;;
42978;SDS011;28616;44.746;19.678;2023-01-04T14:38:28;122.38;;;53.53;;
42978;SDS011;28616;44.746;19.678;2023-01-04T14:41:08;78.47;;;36.13;;
42978;SDS011;28616;44.746;19.678;2023-01-04T14:46:20;60.38;;;29.45;;
42978;SDS011;28616;44.746;19.678;2023-01-04T14:48:47;78.05;;;37.72;;
42978;SDS011;28616;44.746;19.678;2023-01-04T14:51:17;61.78;;;30.27;;
42978;SDS011;28616;44.746;19.678;2023-01-04T14:53:45;55.58;;;27.73;;
42978;SDS011;28616;44.746;19.678;2023-01-04T14:56:14;66.80;;;30.50;;
42978;SDS011;28616;44.746;19.678;2023-01-04T14:58:42;183.03;;;74.13;;
42978;SDS011;28616;44.746;19.678;2023-01-04T15:01:08;109.70;;;48.78;;
42978;SDS011;28616;44.746;19.678;2023-01-04T15:03:35;186.63;;;77.78;;
42978;SDS011;28616;44.746;19.678;2023-01-04T15:06:00;172.95;;;73.38;;
42978;SDS011;28616;44.746;19.678;2023-01-04T15:08:26;163.57;;;71.53;;
42978;SDS011;28616;44.746;19.678;2023-01-04T15:10:52;157.25;;;68.22;;
42978;SDS011;28616;44.746;19.678;2023-01-04T15:13:18;144.40;;;58.83;;
42978;SDS011;28616;44.746;19.678;2023-01-04T15:15:43;137.93;;;58.67;;
42978;SDS011;28616;44.746;19.678;2023-01-04T15:18:09;108.85;;;45.42;;
42978;SDS011;28616;44.746;19.678;2023-01-04T15:20:37;106.80;;;51.22;;
42978;SDS011;28616;44.746;19.678;2023-01-04T15:23:04;167.90;;;67.78;;
42978;SDS011;28616;44.746;19.678;2023-01-04T15:25:30;158.82;;;65.72;;
42978;SDS011;28616;44.746;19.678;2023-01-04T15:27:56;150.90;;;64.03;;
42978;SDS011;28616;44.746;19.678;2023-01-04T15:32:47;151.48;;;71.70;;
42978;SDS011;28616;44.746;19.678;2023-01-04T15:35:13;156.43;;;68.22;;
42978;SDS011;28616;44.746;19.678;2023-01-04T15:37:41;136.25;;;57.90;;
42978;SDS011;28616;44.746;19.678;2023-01-04T15:40:08;118.50;;;47.13;;
42978;SDS011;28616;44.746;19.678;2023-01-04T15:42:35;109.97;;;46.28;;
42978;SDS011;28616;44.746;19.678;2023-01-04T15:45:20;101.70;;;48.42;;
42978;SDS011;28616;44.746;19.678;2023-01-04T15:47:47;132.07;;;59.78;;
42978;SDS011;28616;44.746;19.678;2023-01-04T15:50:17;149.43;;;74.55;;
42978;SDS011;28616;44.746;19.678;2023-01-04T15:52:43;161.18;;;86.15;;
42978;SDS011;28616;44.746;19.678;2023-01-04T15:55:09;137.90;;;71.50;;
42978;SDS011;28616;44.746;19.678;2023-01-04T15:57:35;147.90;;;73.45;;
42978;SDS011;28616;44.746;19.678;2023-01-04T16:00:02;144.77;;;70.15;;
42978;SDS011;28616;44.746;19.678;2023-01-04T16:02:28;155.68;;;79.85;;
42978;SDS011;28616;44.746;19.678;2023-01-04T16:04:54;137.00;;;62.75;;
42978;SDS011;28616;44.746;19.678;2023-01-04T16:07:20;129.40;;;63.03;;
42978;SDS011;28616;44.746;19.678;2023-01-04T16:09:46;131.00;;;68.28;;
42978;SDS011;28616;44.746;19.678;2023-01-04T16:12:11;267.75;;;118.70;;
42978;SDS011;28616;44.746;19.678;2023-01-04T16:14:55;267.55;;;127.93;;
42978;SDS011;28616;44.746;19.678;2023-01-04T16:17:21;217.50;;;98.80;;
42978;SDS011;28616;44.746;19.678;2023-01-04T16:19:47;226.35;;;107.28;;
42978;SDS011;28616;44.746;19.678;2023-01-04T16:22:12;261.80;;;122.72;;
42978;SDS011;28616;44.746;19.678;2023-01-04T16:24:38;254.20;;;121.35;;
42978;SDS011;28616;44.746;19.678;2023-01-04T16:27:04;280.70;;;134.50;;
42978;SDS011;28616;44.746;19.678;2023-01-04T16:29:29;293.63;;;131.95;;